Bowling Green, Florida
Current Conditions -  °F | °C
As of 9:47 AM on Saturday 01 Nov 2014 (Local Time) from KBOW Reporting Station
Scattered Clouds Scattered Clouds  
Wind Chill: 55°   Ceiling: Unl
Heat Index: 55°   Visibility: 10mi
Dew Point: 45°   Wind: 17mph
Humidity: 67%   Direction: 320°NW
Pressure: 30.04"   Gusts: 23mph
Location:  27.64°N, 81.82°W
Report Text: KBOW 011347Z 32015G20KT 10SM SCT025 13/07 A3004
Loading
Personal Weather Stations






























Interactive Weather Map
Tropical Storm Tracking
New forecast layout! Learn more

10-Day Weather Forecast

Advertisements
Track Severe Weather on mobile